sensor_id;sensor_type;location;lat;lon;timestamp;temperature;humidity
5697;DHT22;2873;50.966;7.210;2023-10-19T00:00:35;11.80;99.90
5697;DHT22;2873;50.966;7.210;2023-10-19T00:03:04;12.00;99.90
5697;DHT22;2873;50.966;7.210;2023-10-19T00:05:35;11.90;99.90
5697;DHT22;2873;50.966;7.210;2023-10-19T00:08:02;12.10;99.90
5697;DHT22;2873;50.966;7.210;2023-10-19T00:10:43;12.00;99.90
5697;DHT22;2873;50.966;7.210;2023-10-19T00:13:11;12.10;99.90
5697;DHT22;2873;50.966;7.210;2023-10-19T00:15:45;12.10;99.90
5697;DHT22;2873;50.966;7.210;2023-10-19T00:18:17;12.20;99.90
5697;DHT22;2873;50.966;7.210;2023-10-19T00:20:47;12.10;99.90
5697;DHT22;2873;50.966;7.210;2023-10-19T00:23:21;12.20;99.90
5697;DHT22;2873;50.966;7.210;2023-10-19T00:25:55;12.20;99.90
5697;DHT22;2873;50.966;7.210;2023-10-19T00:28:21;12.40;99.90
5697;DHT22;2873;50.966;7.210;2023-10-19T00:30:48;12.40;99.90
5697;DHT22;2873;50.966;7.210;2023-10-19T00:33:16;12.50;99.90
5697;DHT22;2873;50.966;7.210;2023-10-19T00:35:54;12.50;99.90
5697;DHT22;2873;50.966;7.210;2023-10-19T00:38:25;12.50;99.90
5697;DHT22;2873;50.966;7.210;2023-10-19T00:41:06;12.60;99.90
5697;DHT22;2873;50.966;7.210;2023-10-19T00:43:33;12.50;99.90
5697;DHT22;2873;50.966;7.210;2023-10-19T00:46:13;12.40;99.90
5697;DHT22;2873;50.966;7.210;2023-10-19T00:48:47;12.50;99.90
5697;DHT22;2873;50.966;7.210;2023-10-19T00:51:16;12.50;99.90
5697;DHT22;2873;50.966;7.210;2023-10-19T00:54:13;12.60;99.90
5697;DHT22;2873;50.966;7.210;2023-10-19T00:56:46;12.60;99.90
5697;DHT22;2873;50.966;7.210;2023-10-19T00:59:18;12.50;99.90
5697;DHT22;2873;50.966;7.210;2023-10-19T01:01:51;12.40;99.90
5697;DHT22;2873;50.966;7.210;2023-10-19T01:04:23;12.50;99.90
5697;DHT22;2873;50.966;7.210;2023-10-19T01:06:49;12.40;99.90
5697;DHT22;2873;50.966;7.210;2023-10-19T01:09:30;12.40;99.90
5697;DHT22;2873;50.966;7.210;2023-10-19T01:12:00;12.40;99.90
5697;DHT22;2873;50.966;7.210;2023-10-19T01:14:29;12.40;99.90
5697;DHT22;2873;50.966;7.210;2023-10-19T01:16:55;12.50;99.90
5697;DHT22;2873;50.966;7.210;2023-10-19T01:19:24;12.60;99.90
5697;DHT22;2873;50.966;7.210;2023-10-19T01:21:53;12.50;99.90
5697;DHT22;2873;50.966;7.210;2023-10-19T01:24:24;12.60;99.90
5697;DHT22;2873;50.966;7.210;2023-10-19T01:27:07;12.50;99.90
5697;DHT22;2873;50.966;7.210;2023-10-19T01:29:36;12.60;99.90
5697;DHT22;2873;50.966;7.210;2023-10-19T01:32:04;12.60;99.90
5697;DHT22;2873;50.966;7.210;2023-10-19T01:34:34;12.70;99.90
5697;DHT22;2873;50.966;7.210;2023-10-19T01:37:00;12.70;99.90
5697;DHT22;2873;50.966;7.210;2023-10-19T01:39:35;12.80;99.90
5697;DHT22;2873;50.966;7.210;2023-10-19T01:42:02;12.80;99.90
5697;DHT22;2873;50.966;7.210;2023-10-19T01:44:33;12.80;99.90
5697;DHT22;2873;50.966;7.210;2023-10-19T01:47:01;12.70;99.90
5697;DHT22;2873;50.966;7.210;2023-10-19T01:49:27;12.80;99.90
5697;DHT22;2873;50.966;7.210;2023-10-19T01:51:53;12.80;99.90
5697;DHT22;2873;50.966;7.210;2023-10-19T01:54:20;12.80;99.90
5697;DHT22;2873;50.966;7.210;2023-10-19T01:56:54;12.80;99.90
5697;DHT22;2873;50.966;7.210;2023-10-19T01:59:23;12.80;99.90
5697;DHT22;2873;50.966;7.210;2023-10-19T02:01:56;12.80;99.90
5697;DHT22;2873;50.966;7.210;2023-10-19T02:04:23;12.90;99.90
5697;DHT22;2873;50.966;7.210;2023-10-19T02:06:49;13.00;99.90
5697;DHT22;2873;50.966;7.210;2023-10-19T02:09:16;13.00;99.90
5697;DHT22;2873;50.966;7.210;2023-10-19T02:11:43;12.80;99.90
5697;DHT22;2873;50.966;7.210;2023-10-19T02:14:13;13.00;99.90
5697;DHT22;2873;50.966;7.210;2023-10-19T02:16:43;13.10;99.90
5697;DHT22;2873;50.966;7.210;2023-10-19T02:19:09;13.10;99.90
5697;DHT22;2873;50.966;7.210;2023-10-19T02:21:35;13.20;99.90
5697;DHT22;2873;50.966;7.210;2023-10-19T02:24:10;13.10;99.90
5697;DHT22;2873;50.966;7.210;2023-10-19T02:26:43;13.10;99.90
5697;DHT22;2873;50.966;7.210;2023-10-19T02:29:09;13.20;99.90
5697;DHT22;2873;50.966;7.210;2023-10-19T02:31:39;13.20;99.90
5697;DHT22;2873;50.966;7.210;2023-10-19T02:34:06;13.20;99.90
5697;DHT22;2873;50.966;7.210;2023-10-19T02:36:36;13.30;99.90
5697;DHT22;2873;50.966;7.210;2023-10-19T02:39:05;13.30;99.90
5697;DHT22;2873;50.966;7.210;2023-10-19T02:41:38;13.20;99.90
5697;DHT22;2873;50.966;7.210;2023-10-19T02:44:08;13.20;99.90
5697;DHT22;2873;50.966;7.210;2023-10-19T02:49:12;13.30;99.90
5697;DHT22;2873;50.966;7.210;2023-10-19T02:51:45;13.40;99.90
5697;DHT22;2873;50.966;7.210;2023-10-19T02:54:16;13.50;99.90
5697;DHT22;2873;50.966;7.210;2023-10-19T02:56:46;13.50;99.90
5697;DHT22;2873;50.966;7.210;2023-10-19T02:59:17;13.40;99.90
5697;DHT22;2873;50.966;7.210;2023-10-19T03:01:47;13.40;99.90
5697;DHT22;2873;50.966;7.210;2023-10-19T03:04:13;13.50;99.90
5697;DHT22;2873;50.966;7.210;2023-10-19T03:06:40;13.50;99.90
5697;DHT22;2873;50.966;7.210;2023-10-19T03:09:08;13.50;99.90
5697;DHT22;2873;50.966;7.210;2023-10-19T03:11:56;13.40;99.90
5697;DHT22;2873;50.966;7.210;2023-10-19T03:14:26;13.30;99.90
5697;DHT22;2873;50.966;7.210;2023-10-19T03:16:52;13.40;99.90
5697;DHT22;2873;50.966;7.210;2023-10-19T03:19:20;13.50;99.90
5697;DHT22;2873;50.966;7.210;2023-10-19T03:21:46;13.50;99.90
5697;DHT22;2873;50.966;7.210;2023-10-19T03:24:16;13.50;99.90
5697;DHT22;2873;50.966;7.210;2023-10-19T03:27:00;13.60;99.90
5697;DHT22;2873;50.966;7.210;2023-10-19T03:29:26;13.60;99.90
5697;DHT22;2873;50.966;7.210;2023-10-19T03:31:57;13.60;99.90
5697;DHT22;2873;50.966;7.210;2023-10-19T03:34:24;13.60;99.90
5697;DHT22;2873;50.966;7.210;2023-10-19T03:36:50;13.60;99.90
5697;DHT22;2873;50.966;7.210;2023-10-19T03:39:16;13.70;99.90
5697;DHT22;2873;50.966;7.210;2023-10-19T03:41:43;13.70;99.90
5697;DHT22;2873;50.966;7.210;2023-10-19T03:44:13;13.70;99.90
5697;DHT22;2873;50.966;7.210;2023-10-19T03:46:50;13.80;99.90
5697;DHT22;2873;50.966;7.210;2023-10-19T03:49:19;13.70;99.90
5697;DHT22;2873;50.966;7.210;2023-10-19T03:51:45;13.30;99.90
5697;DHT22;2873;50.966;7.210;2023-10-19T03:54:25;13.30;99.90
5697;DHT22;2873;50.966;7.210;2023-10-19T03:56:51;13.30;99.90
5697;DHT22;2873;50.966;7.210;2023-10-19T03:59:18;13.20;99.90
5697;DHT22;2873;50.966;7.210;2023-10-19T04:01:44;13.20;99.90
5697;DHT22;2873;50.966;7.210;2023-10-19T04:04:10;13.20;99.90
5697;DHT22;2873;50.966;7.210;2023-10-19T04:06:36;13.20;99.90
5697;DHT22;2873;50.966;7.210;2023-10-19T04:09:05;13.30;99.90
5697;DHT22;2873;50.966;7.210;2023-10-19T04:11:34;13.40;99.90
5697;DHT22;2873;50.966;7.210;2023-10-19T04:14:14;13.40;99.90
5697;DHT22;2873;50.966;7.210;2023-10-19T04:16:41;13.30;99.90
5697;DHT22;2873;50.966;7.210;2023-10-19T04:19:09;13.30;99.90
5697;DHT22;2873;50.966;7.210;2023-10-19T04:21:35;13.40;99.90
5697;DHT22;2873;50.966;7.210;2023-10-19T04:24:05;13.30;99.90
5697;DHT22;2873;50.966;7.210;2023-10-19T04:26:33;13.40;99.90
5697;DHT22;2873;50.966;7.210;2023-10-19T04:29:02;13.50;99.90
5697;DHT22;2873;50.966;7.210;2023-10-19T04:31:36;13.60;99.90
5697;DHT22;2873;50.966;7.210;2023-10-19T04:34:27;13.60;99.90
5697;DHT22;2873;50.966;7.210;2023-10-19T04:36:54;13.50;99.90
5697;DHT22;2873;50.966;7.210;2023-10-19T04:39:20;13.70;99.90
5697;DHT22;2873;50.966;7.210;2023-10-19T04:41:46;13.70;99.90
5697;DHT22;2873;50.966;7.210;2023-10-19T04:44:14;13.80;99.90
5697;DHT22;2873;50.966;7.210;2023-10-19T04:46:41;13.80;99.90
5697;DHT22;2873;50.966;7.210;2023-10-19T04:49:07;13.80;99.90
5697;DHT22;2873;50.966;7.210;2023-10-19T04:51:32;13.80;99.90
5697;DHT22;2873;50.966;7.210;2023-10-19T04:53:59;13.90;99.90
5697;DHT22;2873;50.966;7.210;2023-10-19T04:56:25;13.90;99.90
5697;DHT22;2873;50.966;7.210;2023-10-19T04:58:51;14.00;99.90
5697;DHT22;2873;50.966;7.210;2023-10-19T05:01:16;13.90;99.90
5697;DHT22;2873;50.966;7.210;2023-10-19T05:03:42;13.80;99.90
5697;DHT22;2873;50.966;7.210;2023-10-19T05:06:07;13.90;99.90
5697;DHT22;2873;50.966;7.210;2023-10-19T05:08:35;14.00;99.90
5697;DHT22;2873;50.966;7.210;2023-10-19T05:11:02;13.90;99.90
5697;DHT22;2873;50.966;7.210;2023-10-19T05:13:28;13.80;99.90
5697;DHT22;2873;50.966;7.210;2023-10-19T05:15:55;13.80;99.90
5697;DHT22;2873;50.966;7.210;2023-10-19T05:18:22;13.70;99.90
5697;DHT22;2873;50.966;7.210;2023-10-19T05:20:48;13.70;99.90
5697;DHT22;2873;50.966;7.210;2023-10-19T05:23:14;13.80;99.90
5697;DHT22;2873;50.966;7.210;2023-10-19T05:25:40;13.80;99.90
5697;DHT22;2873;50.966;7.210;2023-10-19T05:28:06;13.90;99.90
5697;DHT22;2873;50.966;7.210;2023-10-19T05:30:32;13.90;99.90
5697;DHT22;2873;50.966;7.210;2023-10-19T05:32:59;13.90;99.90
5697;DHT22;2873;50.966;7.210;2023-10-19T05:35:27;13.80;99.90
5697;DHT22;2873;50.966;7.210;2023-10-19T05:37:53;13.80;99.90
5697;DHT22;2873;50.966;7.210;2023-10-19T05:40:24;13.80;99.90
5697;DHT22;2873;50.966;7.210;2023-10-19T05:42:56;13.80;99.90
5697;DHT22;2873;50.966;7.210;2023-10-19T05:45:22;13.70;99.90
5697;DHT22;2873;50.966;7.210;2023-10-19T05:47:48;13.70;99.90
5697;DHT22;2873;50.966;7.210;2023-10-19T05:50:13;13.70;99.90
5697;DHT22;2873;50.966;7.210;2023-10-19T05:52:43;13.80;99.90
5697;DHT22;2873;50.966;7.210;2023-10-19T05:55:09;13.80;99.90
5697;DHT22;2873;50.966;7.210;2023-10-19T05:57:39;13.90;99.90
5697;DHT22;2873;50.966;7.210;2023-10-19T06:00:12;13.80;99.90
5697;DHT22;2873;50.966;7.210;2023-10-19T06:02:48;13.90;99.90
5697;DHT22;2873;50.966;7.210;2023-10-19T06:05:18;13.80;99.90
5697;DHT22;2873;50.966;7.210;2023-10-19T06:07:45;13.90;99.90
5697;DHT22;2873;50.966;7.210;2023-10-19T06:10:13;13.90;99.90
5697;DHT22;2873;50.966;7.210;2023-10-19T06:12:42;13.80;99.90
5697;DHT22;2873;50.966;7.210;2023-10-19T06:15:08;13.90;99.90
5697;DHT22;2873;50.966;7.210;2023-10-19T06:17:36;14.00;99.90
5697;DHT22;2873;50.966;7.210;2023-10-19T06:20:05;14.00;99.90
5697;DHT22;2873;50.966;7.210;2023-10-19T06:22:33;14.00;99.90
5697;DHT22;2873;50.966;7.210;2023-10-19T06:25:00;14.00;99.90
5697;DHT22;2873;50.966;7.210;2023-10-19T06:27:26;14.10;99.90
5697;DHT22;2873;50.966;7.210;2023-10-19T06:29:51;14.10;99.90
5697;DHT22;2873;50.966;7.210;2023-10-19T06:32:18;14.10;99.90
5697;DHT22;2873;50.966;7.210;2023-10-19T06:34:43;14.10;99.90
5697;DHT22;2873;50.966;7.210;2023-10-19T06:37:09;14.20;99.90
5697;DHT22;2873;50.966;7.210;2023-10-19T06:39:37;14.20;99.90
5697;DHT22;2873;50.966;7.210;2023-10-19T06:42:06;14.20;99.90
5697;DHT22;2873;50.966;7.210;2023-10-19T06:44:35;14.20;99.90
5697;DHT22;2873;50.966;7.210;2023-10-19T06:47:01;14.10;99.90
5697;DHT22;2873;50.966;7.210;2023-10-19T06:49:29;14.10;99.90
5697;DHT22;2873;50.966;7.210;2023-10-19T06:51:55;14.10;99.90
5697;DHT22;2873;50.966;7.210;2023-10-19T06:54:22;14.10;99.90
5697;DHT22;2873;50.966;7.210;2023-10-19T06:56:47;14.20;99.90
5697;DHT22;2873;50.966;7.210;2023-10-19T06:59:13;14.20;99.90
5697;DHT22;2873;50.966;7.210;2023-10-19T07:01:38;14.20;99.90
5697;DHT22;2873;50.966;7.210;2023-10-19T07:04:04;14.30;99.90
5697;DHT22;2873;50.966;7.210;2023-10-19T07:06:29;14.30;99.90
5697;DHT22;2873;50.966;7.210;2023-10-19T07:08:56;14.40;99.90
5697;DHT22;2873;50.966;7.210;2023-10-19T07:11:22;14.40;99.90
5697;DHT22;2873;50.966;7.210;2023-10-19T07:13:52;14.30;99.90
5697;DHT22;2873;50.966;7.210;2023-10-19T07:16:19;14.40;99.90
5697;DHT22;2873;50.966;7.210;2023-10-19T07:18:45;14.40;99.90
5697;DHT22;2873;50.966;7.210;2023-10-19T07:21:11;14.50;99.90
5697;DHT22;2873;50.966;7.210;2023-10-19T07:23:37;14.50;99.90
5697;DHT22;2873;50.966;7.210;2023-10-19T07:26:06;14.60;99.90
5697;DHT22;2873;50.966;7.210;2023-10-19T07:28:32;14.60;99.90
5697;DHT22;2873;50.966;7.210;2023-10-19T07:30:58;14.60;99.90
5697;DHT22;2873;50.966;7.210;2023-10-19T07:33:25;14.60;99.90
5697;DHT22;2873;50.966;7.210;2023-10-19T07:35:52;14.70;99.90
5697;DHT22;2873;50.966;7.210;2023-10-19T07:38:23;14.70;99.90
5697;DHT22;2873;50.966;7.210;2023-10-19T07:40:49;14.80;99.90
5697;DHT22;2873;50.966;7.210;2023-10-19T07:43:18;14.80;99.90
5697;DHT22;2873;50.966;7.210;2023-10-19T07:45:45;15.00;99.90
5697;DHT22;2873;50.966;7.210;2023-10-19T07:48:13;15.00;99.90
5697;DHT22;2873;50.966;7.210;2023-10-19T07:50:42;15.00;99.90
5697;DHT22;2873;50.966;7.210;2023-10-19T07:53:08;15.00;99.90
5697;DHT22;2873;50.966;7.210;2023-10-19T07:55:35;15.10;99.90
5697;DHT22;2873;50.966;7.210;2023-10-19T07:58:01;15.10;99.90
5697;DHT22;2873;50.966;7.210;2023-10-19T08:00:29;15.20;99.90
5697;DHT22;2873;50.966;7.210;2023-10-19T08:03:00;15.20;99.90
5697;DHT22;2873;50.966;7.210;2023-10-19T08:05:25;15.30;99.90
5697;DHT22;2873;50.966;7.210;2023-10-19T08:07:51;15.30;99.90
5697;DHT22;2873;50.966;7.210;2023-10-19T08:10:19;15.30;99.90
5697;DHT22;2873;50.966;7.210;2023-10-19T08:12:46;15.30;99.90
5697;DHT22;2873;50.966;7.210;2023-10-19T08:15:16;15.20;99.90
5697;DHT22;2873;50.966;7.210;2023-10-19T08:17:44;15.30;99.90
5697;DHT22;2873;50.966;7.210;2023-10-19T08:20:12;15.20;99.90
5697;DHT22;2873;50.966;7.210;2023-10-19T08:22:56;15.30;99.90
5697;DHT22;2873;50.966;7.210;2023-10-19T08:25:25;15.30;99.90
5697;DHT22;2873;50.966;7.210;2023-10-19T08:27:54;15.40;99.90
5697;DHT22;2873;50.966;7.210;2023-10-19T08:30:22;15.30;99.90
5697;DHT22;2873;50.966;7.210;2023-10-19T08:32:48;15.40;99.90
5697;DHT22;2873;50.966;7.210;2023-10-19T08:35:15;15.60;99.90
5697;DHT22;2873;50.966;7.210;2023-10-19T08:37:43;15.60;99.90
5697;DHT22;2873;50.966;7.210;2023-10-19T08:40:12;15.60;99.90
5697;DHT22;2873;50.966;7.210;2023-10-19T08:42:41;15.60;99.90
5697;DHT22;2873;50.966;7.210;2023-10-19T08:45:11;15.60;99.90
5697;DHT22;2873;50.966;7.210;2023-10-19T08:47:55;15.70;99.90
5697;DHT22;2873;50.966;7.210;2023-10-19T08:50:25;15.80;99.90
5697;DHT22;2873;50.966;7.210;2023-10-19T08:52:56;15.80;99.90
5697;DHT22;2873;50.966;7.210;2023-10-19T08:55:22;15.90;99.90
5697;DHT22;2873;50.966;7.210;2023-10-19T08:57:49;15.70;99.90
5697;DHT22;2873;50.966;7.210;2023-10-19T09:00:16;15.80;99.90
5697;DHT22;2873;50.966;7.210;2023-10-19T09:02:45;15.80;99.90
5697;DHT22;2873;50.966;7.210;2023-10-19T09:05:11;16.10;99.90
5697;DHT22;2873;50.966;7.210;2023-10-19T09:07:54;16.30;99.90
5697;DHT22;2873;50.966;7.210;2023-10-19T09:10:24;16.60;99.90
5697;DHT22;2873;50.966;7.210;2023-10-19T09:13:01;16.90;99.90
5697;DHT22;2873;50.966;7.210;2023-10-19T09:15:27;17.10;99.90
5697;DHT22;2873;50.966;7.210;2023-10-19T09:17:54;17.40;99.90
5697;DHT22;2873;50.966;7.210;2023-10-19T09:20:21;17.60;99.90
5697;DHT22;2873;50.966;7.210;2023-10-19T09:22:54;17.90;99.90
5697;DHT22;2873;50.966;7.210;2023-10-19T09:25:20;18.00;99.90
5697;DHT22;2873;50.966;7.210;2023-10-19T09:27:46;18.30;99.90
5697;DHT22;2873;50.966;7.210;2023-10-19T09:30:13;18.50;99.90
5697;DHT22;2873;50.966;7.210;2023-10-19T09:32:46;18.60;99.90
5697;DHT22;2873;50.966;7.210;2023-10-19T09:35:14;18.40;99.90
5697;DHT22;2873;50.966;7.210;2023-10-19T09:37:41;18.40;99.90
5697;DHT22;2873;50.966;7.210;2023-10-19T09:40:09;18.40;99.90
5697;DHT22;2873;50.966;7.210;2023-10-19T09:42:42;18.60;99.90
5697;DHT22;2873;50.966;7.210;2023-10-19T09:45:12;19.20;99.90
5697;DHT22;2873;50.966;7.210;2023-10-19T09:47:41;19.60;99.90
5697;DHT22;2873;50.966;7.210;2023-10-19T09:50:11;19.90;99.90
5697;DHT22;2873;50.966;7.210;2023-10-19T09:52:39;20.30;99.90
5697;DHT22;2873;50.966;7.210;2023-10-19T09:55:19;20.60;99.90
5697;DHT22;2873;50.966;7.210;2023-10-19T09:58:12;21.00;99.90
5697;DHT22;2873;50.966;7.210;2023-10-19T10:00:49;21.30;99.90
5697;DHT22;2873;50.966;7.210;2023-10-19T10:09:02;22.20;99.90
5697;DHT22;2873;50.966;7.210;2023-10-19T10:11:29;22.40;99.90
5697;DHT22;2873;50.966;7.210;2023-10-19T10:13:57;22.60;99.90
5697;DHT22;2873;50.966;7.210;2023-10-19T10:16:28;22.50;99.90
5697;DHT22;2873;50.966;7.210;2023-10-19T10:18:59;22.40;99.90
5697;DHT22;2873;50.966;7.210;2023-10-19T10:21:29;22.30;99.90
5697;DHT22;2873;50.966;7.210;2023-10-19T10:23:59;22.60;99.90
5697;DHT22;2873;50.966;7.210;2023-10-19T10:26:28;22.70;99.90
5697;DHT22;2873;50.966;7.210;2023-10-19T10:31:45;22.60;99.90
5697;DHT22;2873;50.966;7.210;2023-10-19T10:34:41;22.50;99.90
5697;DHT22;2873;50.966;7.210;2023-10-19T10:37:04;22.50;99.90
5697;DHT22;2873;50.966;7.210;2023-10-19T10:39:33;22.60;99.90
5697;DHT22;2873;50.966;7.210;2023-10-19T10:42:03;22.60;99.90
5697;DHT22;2873;50.966;7.210;2023-10-19T10:44:40;22.20;99.90
5697;DHT22;2873;50.966;7.210;2023-10-19T10:47:11;22.30;99.90
5697;DHT22;2873;50.966;7.210;2023-10-19T10:50:06;22.40;99.90
5697;DHT22;2873;50.966;7.210;2023-10-19T10:52:33;22.40;99.90
5697;DHT22;2873;50.966;7.210;2023-10-19T10:55:12;22.20;99.90
5697;DHT22;2873;50.966;7.210;2023-10-19T10:57:40;22.10;99.90
5697;DHT22;2873;50.966;7.210;2023-10-19T11:00:08;21.80;99.90
5697;DHT22;2873;50.966;7.210;2023-10-19T11:02:35;21.80;99.90
5697;DHT22;2873;50.966;7.210;2023-10-19T11:05:01;21.40;99.90
5697;DHT22;2873;50.966;7.210;2023-10-19T11:07:28;21.40;99.90
5697;DHT22;2873;50.966;7.210;2023-10-19T11:09:55;21.30;99.90
5697;DHT22;2873;50.966;7.210;2023-10-19T11:12:20;21.20;99.90
5697;DHT22;2873;50.966;7.210;2023-10-19T11:14:56;21.20;99.90
5697;DHT22;2873;50.966;7.210;2023-10-19T11:17:24;21.10;99.90
5697;DHT22;2873;50.966;7.210;2023-10-19T11:19:56;20.90;99.90
5697;DHT22;2873;50.966;7.210;2023-10-19T11:22:23;20.60;99.90
5697;DHT22;2873;50.966;7.210;2023-10-19T11:24:55;20.70;99.90
5697;DHT22;2873;50.966;7.210;2023-10-19T11:27:28;20.70;99.90
5697;DHT22;2873;50.966;7.210;2023-10-19T11:32:21;20.40;99.90
5697;DHT22;2873;50.966;7.210;2023-10-19T11:34:47;20.30;99.90
5697;DHT22;2873;50.966;7.210;2023-10-19T11:37:13;20.30;99.90
5697;DHT22;2873;50.966;7.210;2023-10-19T11:39:39;20.20;99.90
5697;DHT22;2873;50.966;7.210;2023-10-19T11:42:05;20.00;99.90
5697;DHT22;2873;50.966;7.210;2023-10-19T11:44:30;20.10;99.90
5697;DHT22;2873;50.966;7.210;2023-10-19T11:46:56;20.10;99.90
5697;DHT22;2873;50.966;7.210;2023-10-19T11:49:21;20.10;99.90
5697;DHT22;2873;50.966;7.210;2023-10-19T11:51:48;19.90;99.90
5697;DHT22;2873;50.966;7.210;2023-10-19T11:54:13;19.80;99.90
5697;DHT22;2873;50.966;7.210;2023-10-19T11:56:39;19.80;99.90
5697;DHT22;2873;50.966;7.210;2023-10-19T11:59:04;19.60;99.90
5697;DHT22;2873;50.966;7.210;2023-10-19T12:01:30;19.70;99.90
5697;DHT22;2873;50.966;7.210;2023-10-19T12:03:55;19.40;99.90
5697;DHT22;2873;50.966;7.210;2023-10-19T12:06:21;19.40;99.90
5697;DHT22;2873;50.966;7.210;2023-10-19T12:08:49;19.40;99.90
5697;DHT22;2873;50.966;7.210;2023-10-19T12:11:14;19.30;99.90
5697;DHT22;2873;50.966;7.210;2023-10-19T12:13:41;19.20;99.90
5697;DHT22;2873;50.966;7.210;2023-10-19T12:16:09;19.10;99.90
5697;DHT22;2873;50.966;7.210;2023-10-19T12:18:38;19.10;99.90
5697;DHT22;2873;50.966;7.210;2023-10-19T12:21:04;19.10;99.90
5697;DHT22;2873;50.966;7.210;2023-10-19T12:23:33;19.00;99.90
5697;DHT22;2873;50.966;7.210;2023-10-19T12:25:59;18.90;99.90
5697;DHT22;2873;50.966;7.210;2023-10-19T12:28:28;18.90;99.90
5697;DHT22;2873;50.966;7.210;2023-10-19T12:30:54;18.70;99.90
5697;DHT22;2873;50.966;7.210;2023-10-19T12:33:21;18.80;99.90
5697;DHT22;2873;50.966;7.210;2023-10-19T12:35:47;18.80;99.90
5697;DHT22;2873;50.966;7.210;2023-10-19T12:38:22;18.70;99.90
5697;DHT22;2873;50.966;7.210;2023-10-19T12:40:49;18.60;99.90
5697;DHT22;2873;50.966;7.210;2023-10-19T12:43:15;18.60;99.90
5697;DHT22;2873;50.966;7.210;2023-10-19T12:45:44;18.60;99.90
5697;DHT22;2873;50.966;7.210;2023-10-19T12:48:13;18.50;99.90
5697;DHT22;2873;50.966;7.210;2023-10-19T12:50:39;18.30;99.90
5697;DHT22;2873;50.966;7.210;2023-10-19T12:53:06;18.30;99.90
5697;DHT22;2873;50.966;7.210;2023-10-19T12:55:32;18.20;99.90
5697;DHT22;2873;50.966;7.210;2023-10-19T12:57:58;18.20;99.90
5697;DHT22;2873;50.966;7.210;2023-10-19T13:00:25;18.10;99.90
5697;DHT22;2873;50.966;7.210;2023-10-19T13:02:52;17.90;99.90
5697;DHT22;2873;50.966;7.210;2023-10-19T13:05:32;18.20;99.90
5697;DHT22;2873;50.966;7.210;2023-10-19T13:07:58;18.20;99.90
5697;DHT22;2873;50.966;7.210;2023-10-19T13:10:28;18.40;99.90
5697;DHT22;2873;50.966;7.210;2023-10-19T13:12:55;18.40;99.90
5697;DHT22;2873;50.966;7.210;2023-10-19T13:15:20;18.30;99.90
5697;DHT22;2873;50.966;7.210;2023-10-19T13:17:48;18.40;99.90
5697;DHT22;2873;50.966;7.210;2023-10-19T13:20:13;18.50;99.90
5697;DHT22;2873;50.966;7.210;2023-10-19T13:22:43;18.50;99.90
5697;DHT22;2873;50.966;7.210;2023-10-19T13:25:09;18.50;99.90
5697;DHT22;2873;50.966;7.210;2023-10-19T13:27:38;18.50;99.90
5697;DHT22;2873;50.966;7.210;2023-10-19T13:30:07;18.50;99.90
5697;DHT22;2873;50.966;7.210;2023-10-19T13:32:36;18.50;99.90
5697;DHT22;2873;50.966;7.210;2023-10-19T13:35:01;18.30;99.90
5697;DHT22;2873;50.966;7.210;2023-10-19T13:37:27;18.40;99.90
5697;DHT22;2873;50.966;7.210;2023-10-19T13:39:53;18.40;99.90
5697;DHT22;2873;50.966;7.210;2023-10-19T13:42:20;18.30;99.90
5697;DHT22;2873;50.966;7.210;2023-10-19T13:44:47;18.40;99.90
5697;DHT22;2873;50.966;7.210;2023-10-19T13:47:13;18.20;99.90
5697;DHT22;2873;50.966;7.210;2023-10-19T13:49:38;18.40;99.90
5697;DHT22;2873;50.966;7.210;2023-10-19T13:52:04;18.50;99.90
5697;DHT22;2873;50.966;7.210;2023-10-19T13:54:30;18.50;99.90
5697;DHT22;2873;50.966;7.210;2023-10-19T13:56:56;18.50;99.90
5697;DHT22;2873;50.966;7.210;2023-10-19T13:59:21;18.30;99.90
5697;DHT22;2873;50.966;7.210;2023-10-19T14:01:49;18.40;99.90
5697;DHT22;2873;50.966;7.210;2023-10-19T14:04:15;18.20;99.90
5697;DHT22;2873;50.966;7.210;2023-10-19T14:06:41;18.00;99.90
5697;DHT22;2873;50.966;7.210;2023-10-19T14:09:08;18.00;99.90
5697;DHT22;2873;50.966;7.210;2023-10-19T14:11:38;18.00;99.90
5697;DHT22;2873;50.966;7.210;2023-10-19T14:14:03;18.00;99.90
5697;DHT22;2873;50.966;7.210;2023-10-19T14:16:30;17.90;99.90
5697;DHT22;2873;50.966;7.210;2023-10-19T14:18:56;17.70;99.90
5697;DHT22;2873;50.966;7.210;2023-10-19T14:21:22;17.80;99.90
5697;DHT22;2873;50.966;7.210;2023-10-19T14:23:52;17.80;99.90
5697;DHT22;2873;50.966;7.210;2023-10-19T14:26:18;17.80;99.90
5697;DHT22;2873;50.966;7.210;2023-10-19T14:28:44;17.70;99.90
5697;DHT22;2873;50.966;7.210;2023-10-19T14:31:10;17.90;99.90
5697;DHT22;2873;50.966;7.210;2023-10-19T14:33:37;17.90;99.90
5697;DHT22;2873;50.966;7.210;2023-10-19T14:36:06;17.90;99.90
5697;DHT22;2873;50.966;7.210;2023-10-19T14:38:33;18.00;99.90
5697;DHT22;2873;50.966;7.210;2023-10-19T14:40:59;18.00;99.90
5697;DHT22;2873;50.966;7.210;2023-10-19T14:43:24;18.00;99.90
5697;DHT22;2873;50.966;7.210;2023-10-19T14:45:55;17.90;99.90
5697;DHT22;2873;50.966;7.210;2023-10-19T14:48:23;17.80;99.90
5697;DHT22;2873;50.966;7.210;2023-10-19T14:50:49;18.00;99.90
5697;DHT22;2873;50.966;7.210;2023-10-19T14:53:16;18.10;99.90
5697;DHT22;2873;50.966;7.210;2023-10-19T14:55:43;18.20;99.90
5697;DHT22;2873;50.966;7.210;2023-10-19T14:58:11;18.20;99.90
5697;DHT22;2873;50.966;7.210;2023-10-19T15:00:37;18.20;99.90
5697;DHT22;2873;50.966;7.210;2023-10-19T15:03:07;18.20;99.90
5697;DHT22;2873;50.966;7.210;2023-10-19T15:05:34;18.10;99.90
5697;DHT22;2873;50.966;7.210;2023-10-19T15:08:06;18.20;99.90
5697;DHT22;2873;50.966;7.210;2023-10-19T15:10:32;18.20;99.90
5697;DHT22;2873;50.966;7.210;2023-10-19T15:12:58;18.30;99.90
5697;DHT22;2873;50.966;7.210;2023-10-19T15:15:25;18.20;99.90
5697;DHT22;2873;50.966;7.210;2023-10-19T15:17:51;18.00;99.90
5697;DHT22;2873;50.966;7.210;2023-10-19T15:20:20;18.00;99.90
5697;DHT22;2873;50.966;7.210;2023-10-19T15:22:46;18.10;99.90
5697;DHT22;2873;50.966;7.210;2023-10-19T15:25:15;17.90;99.90
5697;DHT22;2873;50.966;7.210;2023-10-19T15:27:45;17.80;99.90
5697;DHT22;2873;50.966;7.210;2023-10-19T15:30:12;17.80;99.90
5697;DHT22;2873;50.966;7.210;2023-10-19T15:32:41;17.90;99.90
5697;DHT22;2873;50.966;7.210;2023-10-19T15:35:09;18.00;99.90
5697;DHT22;2873;50.966;7.210;2023-10-19T15:37:35;17.90;99.90
5697;DHT22;2873;50.966;7.210;2023-10-19T15:40:02;17.80;99.90
5697;DHT22;2873;50.966;7.210;2023-10-19T15:42:29;17.80;99.90
5697;DHT22;2873;50.966;7.210;2023-10-19T15:44:55;17.80;99.90
5697;DHT22;2873;50.966;7.210;2023-10-19T15:47:21;18.00;99.90
5697;DHT22;2873;50.966;7.210;2023-10-19T15:49:47;18.10;99.90
5697;DHT22;2873;50.966;7.210;2023-10-19T15:52:14;18.20;99.90
5697;DHT22;2873;50.966;7.210;2023-10-19T15:54:40;18.20;99.90
5697;DHT22;2873;50.966;7.210;2023-10-19T15:57:06;18.20;99.90
5697;DHT22;2873;50.966;7.210;2023-10-19T15:59:31;18.20;99.90
5697;DHT22;2873;50.966;7.210;2023-10-19T16:01:57;18.20;99.90
5697;DHT22;2873;50.966;7.210;2023-10-19T16:04:23;18.20;99.90
5697;DHT22;2873;50.966;7.210;2023-10-19T16:06:48;18.10;99.90
5697;DHT22;2873;50.966;7.210;2023-10-19T16:09:14;18.20;99.90
5697;DHT22;2873;50.966;7.210;2023-10-19T16:11:41;18.20;99.90
5697;DHT22;2873;50.966;7.210;2023-10-19T16:14:06;18.10;99.90
5697;DHT22;2873;50.966;7.210;2023-10-19T16:16:32;18.00;99.90
5697;DHT22;2873;50.966;7.210;2023-10-19T16:18:57;18.00;99.90
5697;DHT22;2873;50.966;7.210;2023-10-19T16:21:23;17.70;99.90
5697;DHT22;2873;50.966;7.210;2023-10-19T16:23:50;17.60;99.90